Time;durP1;ratioP1;P1;durP2;ratioP2;P2;SDS_P1;SDS_P2;PMS_P1;PMS_P2;Temp;Humidity;BMP_temperature;BMP_pressure;BME280_temperature;BME280_humidity;BME280_pressure;Samples;Min_cycle;Max_cycle;Signal;HPM_P1;HPM_P2
2022/11/23 00:01:17;;;;;;;2.55;0.85;;;9.80;99.90;;;9.80;100.00;99222.16;5110439;29;20040;-73
2022/11/23 00:03:54;;;;;;;2.80;0.77;;;9.80;99.90;;;9.84;100.00;99223.94;5124473;29;20053;-73
2022/11/23 00:06:26;;;;;;;3.55;0.82;;;9.90;99.90;;;9.86;100.00;99226.59;5124522;29;20078;-73
2022/11/23 00:08:58;;;;;;;3.85;0.80;;;9.90;99.90;;;9.89;100.00;99224.00;5124434;28;20095;-73
2022/11/23 00:11:33;;;;;;;3.55;0.82;;;9.90;99.90;;;9.91;100.00;99224.88;5120748;29;20283;-74
2022/11/23 00:14:08;;;;;;;3.72;0.75;;;9.90;99.90;;;9.93;100.00;99233.59;5123806;29;20053;-74
2022/11/23 00:16:40;;;;;;;2.47;0.60;;;9.90;99.90;;;9.94;100.00;99231.03;5122994;28;20099;-72
2022/11/23 00:19:12;;;;;;;3.45;0.70;;;10.00;99.90;;;9.95;100.00;99232.75;5104414;29;20138;-72
2022/11/23 00:21:44;;;;;;;1.85;0.52;;;10.00;99.90;;;9.95;100.00;99232.75;5104058;29;20048;-72
2022/11/23 00:24:16;;;;;;;0.95;0.50;;;10.00;99.90;;;9.97;100.00;99233.66;5108782;29;20047;-73
2022/11/23 00:26:48;;;;;;;2.78;0.88;;;10.00;99.90;;;9.98;100.00;99232.81;5119185;29;20050;-74
2022/11/23 00:29:22;;;;;;;1.77;0.60;;;10.00;99.90;;;10.00;100.00;99236.31;5122138;29;20054;-73
2022/11/23 00:31:55;;;;;;;3.28;0.68;;;10.00;99.90;;;10.00;100.00;99238.03;5103973;29;20045;-73
2022/11/23 00:34:27;;;;;;;4.25;1.00;;;10.00;99.90;;;9.99;100.00;99239.75;5116141;29;20461;-75
2022/11/23 00:36:59;;;;;;;2.00;0.82;;;10.00;99.90;;;9.99;100.00;99234.56;5138121;28;20055;-72
2022/11/23 00:39:32;;;;;;;2.00;0.70;;;10.00;99.90;;;10.02;100.00;99245.00;5123847;28;20465;-72
2022/11/23 00:42:04;;;;;;;1.33;0.80;;;10.00;99.90;;;9.99;100.00;99239.75;5118878;29;20497;-73
2022/11/23 00:44:38;;;;;;;4.72;0.90;;;10.00;99.90;;;10.01;100.00;99248.47;5102701;29;20043;-73
2022/11/23 00:47:12;;;;;;;2.95;0.80;;;10.00;99.90;;;10.00;100.00;99246.72;5104108;29;20040;-73
2022/11/23 00:49:44;;;;;;;3.60;1.00;;;10.00;99.90;;;10.02;100.00;99249.31;5103584;29;20428;-73
2022/11/23 00:52:17;;;;;;;2.15;0.65;;;10.10;99.90;;;10.04;100.00;99252.81;5103910;29;20063;-73
2022/11/23 00:54:49;;;;;;;1.90;0.63;;;10.10;99.90;;;10.03;100.00;99251.94;5102669;29;20052;-73
2022/11/23 00:57:21;;;;;;;0.60;0.60;;;10.10;99.90;;;10.02;100.00;99250.19;5115711;29;20065;-73
2022/11/23 00:59:54;;;;;;;4.15;1.08;;;10.10;99.90;;;10.04;100.00;99253.72;5138139;28;20094;-73
2022/11/23 01:02:30;;;;;;;2.03;0.70;;;10.00;99.90;;;10.08;100.00;99259.81;5118185;28;20071;-72
2022/11/23 01:05:04;;;;;;;2.92;0.95;;;10.10;99.90;;;10.09;100.00;99255.47;5104049;29;20176;-73
2022/11/23 01:07:36;;;;;;;1.58;0.82;;;10.10;99.90;;;10.07;100.00;99258.94;5103956;29;20050;-73
2022/11/23 01:10:10;;;;;;;2.30;0.80;;;10.10;99.90;;;10.10;100.00;99257.22;5103579;29;20111;-73
2022/11/23 01:12:42;;;;;;;2.75;0.70;;;10.10;99.90;;;10.08;100.00;99259.81;5103555;29;20461;-73
2022/11/23 01:15:16;;;;;;;2.30;0.70;;;10.10;99.90;;;10.10;100.00;99265.91;5103977;29;20114;-73
2022/11/23 01:17:48;;;;;;;4.53;0.70;;;10.10;99.90;;;10.10;100.00;99265.91;5101867;29;20417;-73
2022/11/23 01:20:20;;;;;;;1.05;0.50;;;10.10;99.90;;;10.11;100.00;99266.81;5102274;29;20051;-73
2022/11/23 01:22:52;;;;;;;2.97;0.63;;;10.10;99.90;;;10.12;100.00;99265.94;5118066;29;20420;-74
2022/11/23 01:25:24;;;;;;;2.83;0.80;;;10.20;99.90;;;10.11;100.00;99264.22;5103161;29;20052;-72
2022/11/23 01:27:56;;;;;;;1.70;0.70;;;10.10;99.90;;;10.11;100.00;99272.88;5102277;29;20063;-72
2022/11/23 01:30:30;;;;;;;1.60;0.40;;;10.20;99.90;;;10.12;100.00;99277.25;5103082;29;20409;-73
2022/11/23 01:33:03;;;;;;;1.48;0.63;;;10.20;99.90;;;10.13;100.00;99272.91;5103569;29;20050;-73
2022/11/23 01:35:35;;;;;;;2.38;0.65;;;10.20;99.90;;;10.14;100.00;99279.84;5102083;29;20055;-73
2022/11/23 01:38:07;;;;;;;2.90;0.80;;;10.20;99.90;;;10.14;100.00;99279.84;5101917;29;20062;-73
2022/11/23 01:40:43;;;;;;;1.40;0.60;;;10.20;99.90;;;10.13;100.00;99278.09;5101967;29;20052;-73
2022/11/23 01:43:17;;;;;;;0.75;0.60;;;10.10;99.90;;;10.13;100.00;99284.19;5101890;29;20378;-73
2022/11/23 01:46:00;;;;;;;2.67;0.63;;;10.20;99.90;;;10.14;100.00;99277.25;5103288;29;20497;-73
2022/11/23 01:48:38;;;;;;;2.53;0.60;;;10.20;99.90;;;10.13;100.00;99281.59;5103020;29;20040;-74
2022/11/23 01:51:15;;;;;;;1.25;0.60;;;10.20;99.90;;;10.13;100.00;99276.38;5102010;29;20052;-73
2022/11/23 01:53:49;;;;;;;1.70;0.65;;;10.20;99.90;;;10.14;100.00;99285.06;5117962;29;20058;-73
2022/11/23 01:56:28;;;;;;;2.38;0.70;;;10.20;99.90;;;10.13;100.00;99283.31;5101827;29;20477;-73
2022/11/23 01:59:05;;;;;;;1.40;0.70;;;10.20;99.90;;;10.13;100.00;99281.59;5103850;29;20462;-72
2022/11/23 02:01:39;;;;;;;4.32;1.23;;;10.20;99.90;;;10.14;100.00;99285.06;5101424;29;20047;-74
2022/11/23 02:04:16;;;;;;;3.95;1.17;;;10.20;99.90;;;10.14;100.00;99282.47;5102436;29;20047;-73
2022/11/23 02:06:51;;;;;;;3.08;1.00;;;10.20;99.90;;;10.12;100.00;99282.44;5102513;29;20568;-73
2022/11/23 02:09:25;;;;;;;5.97;1.10;;;10.20;99.90;;;10.11;100.00;99285.03;5105618;29;20047;-74
2022/11/23 02:11:57;;;;;;;3.38;0.77;;;10.10;99.90;;;10.11;100.00;99282.44;5105445;29;20138;-73
2022/11/23 02:14:30;;;;;;;3.00;0.95;;;10.20;99.90;;;10.10;100.00;99283.25;5105854;29;20154;-72
2022/11/23 02:17:05;;;;;;;2.35;0.88;;;10.10;99.90;;;10.11;100.00;99291.13;5105244;29;20097;-73
2022/11/23 02:19:49;;;;;;;1.88;0.95;;;10.10;99.90;;;10.07;100.00;99290.19;5106557;29;20043;-72
2022/11/23 02:22:30;;;;;;;4.90;1.08;;;10.10;99.90;;;10.07;100.00;99294.53;5105120;29;20048;-72
2022/11/23 02:25:22;;;;;;;4.60;0.90;;;10.10;99.90;;;10.06;100.00;99290.19;5105692;29;20062;-73
2022/11/23 02:27:56;;;;;;;2.17;0.90;;;10.10;99.90;;;10.06;100.00;99296.25;5106250;29;20047;-73
2022/11/23 02:30:30;;;;;;;2.28;0.60;;;10.10;99.90;;;10.05;100.00;99296.25;5106566;29;20051;-73
2022/11/23 02:33:05;;;;;;;1.55;0.63;;;10.10;99.90;;;10.04;100.00;99287.56;5105005;29;20492;-73
2022/11/23 02:35:49;;;;;;;5.80;0.80;;;10.10;99.90;;;10.02;100.00;99299.66;5105354;29;20521;-74
2022/11/23 02:38:23;;;;;;;3.00;0.68;;;10.10;99.90;;;10.04;100.00;99302.28;5117453;29;20050;-74
2022/11/23 02:40:55;;;;;;;2.65;0.63;;;10.10;99.90;;;10.03;100.00;99301.41;5125890;29;20142;-73
2022/11/23 02:43:29;;;;;;;1.58;0.70;;;10.10;99.90;;;10.05;100.00;99297.13;5140841;28;20047;-73
2022/11/23 02:46:04;;;;;;;3.22;0.98;;;10.10;99.90;;;10.05;100.00;99296.25;5125243;29;20082;-74
2022/11/23 02:48:36;;;;;;;2.90;0.80;;;10.10;99.90;;;10.05;100.00;99297.13;5125464;29;20053;-73
2022/11/23 02:51:09;;;;;;;2.28;0.90;;;10.10;99.90;;;10.07;100.00;99302.34;5141183;28;20058;-73
2022/11/23 02:53:41;;;;;;;3.75;0.70;;;10.10;99.90;;;10.05;100.00;99297.13;5124198;29;20052;-73
2022/11/23 02:56:15;;;;;;;2.72;0.90;;;10.10;99.90;;;10.06;100.00;99303.19;5125024;29;20079;-75
2022/11/23 02:58:49;;;;;;;4.13;0.82;;;10.10;99.90;;;10.05;100.00;99302.31;5124019;29;20051;-73
2022/11/23 03:01:21;;;;;;;3.83;1.10;;;10.10;99.90;;;10.04;100.00;99291.88;5124633;29;20051;-72
2022/11/23 03:03:53;;;;;;;2.38;0.65;;;10.10;99.90;;;10.05;100.00;99296.25;5140545;28;20043;-73
2022/11/23 03:06:25;;;;;;;1.60;0.50;;;10.10;99.90;;;10.04;100.00;99299.66;5140803;28;20059;-73
2022/11/23 03:08:57;;;;;;;1.77;0.70;;;10.10;99.90;;;10.03;100.00;99288.38;5125513;28;20039;-73
2022/11/23 03:11:32;;;;;;;1.75;0.60;;;10.10;99.90;;;10.01;100.00;99290.09;5124870;29;20566;-72
2022/11/23 03:14:05;;;;;;;2.83;0.65;;;10.00;99.90;;;10.01;100.00;99297.91;5125818;28;20118;-72
2022/11/23 03:16:46;;;;;;;1.55;0.75;;;10.00;99.90;;;10.00;100.00;99298.78;5140594;28;20053;-73
2022/11/23 03:19:22;;;;;;;4.60;1.00;;;10.00;99.90;;;9.99;100.00;99290.94;5140398;28;20059;-71
2022/11/23 03:21:56;;;;;;;3.00;0.80;;;10.00;99.90;;;9.96;100.00;99291.75;5124387;29;20043;-73
2022/11/23 03:24:28;;;;;;;1.77;0.70;;;10.00;99.90;;;9.95;100.00;99292.63;5140117;28;20055;-72
2022/11/23 03:27:02;;;;;;;3.90;1.00;;;10.00;99.90;;;9.95;100.00;99304.75;5124151;29;20504;-73
2022/11/23 03:29:36;;;;;;;3.60;1.00;;;10.00;99.90;;;9.97;100.00;99297.84;5124019;29;20074;-74
2022/11/23 03:32:15;;;;;;;2.13;0.70;;;10.00;99.90;;;9.95;100.00;99302.16;5126070;29;20050;-72
2022/11/23 03:34:50;;;;;;;3.75;1.00;;;10.00;99.90;;;9.92;100.00;99295.19;5124057;29;20512;-73
2022/11/23 03:37:24;;;;;;;1.75;0.75;;;10.00;99.90;;;9.93;100.00;99299.56;5124302;29;20057;-73
2022/11/23 03:39:59;;;;;;;;;;;10.00;99.90;;;9.92;100.00;99302.13;5108365;29;20142;-72
2022/11/23 03:42:50;;;;;;;2.78;0.77;;;10.00;99.90;;;9.94;100.00;99309.09;5125586;29;19922;-73
2022/11/23 03:45:24;;;;;;;2.70;0.80;;;10.00;99.90;;;9.93;100.00;99309.97;5123569;29;20519;-72
2022/11/23 03:47:56;;;;;;;3.33;0.93;;;10.00;99.90;;;9.93;100.00;99307.34;5139517;28;20424;-72
2022/11/23 03:50:30;;;;;;;3.80;0.80;;;10.00;99.90;;;9.93;100.00;99307.34;5123431;29;20146;-73
2022/11/23 03:53:02;;;;;;;3.05;1.02;;;10.00;99.90;;;9.92;100.00;99302.13;5123876;28;20075;-72
2022/11/23 03:55:34;;;;;;;3.38;0.80;;;10.00;99.90;;;9.92;100.00;99302.13;5139564;28;20043;-73
2022/11/23 03:58:08;;;;;;;1.67;0.80;;;9.90;99.90;;;9.91;100.00;99309.06;5123451;29;20047;-73
2022/11/23 04:00:43;;;;;;;3.10;1.08;;;10.00;99.90;;;9.92;100.00;99310.81;5139223;28;20503;-73
2022/11/23 04:03:17;;;;;;;3.10;0.80;;;9.90;99.90;;;9.91;100.00;99314.28;5123688;29;20051;-72
2022/11/23 04:06:08;;;;;;;3.72;0.88;;;9.90;99.90;;;9.92;100.00;99316.03;5125087;29;20070;-73
2022/11/23 04:08:59;;;;;;;1.85;0.77;;;10.00;99.90;;;9.93;100.00;99309.09;5124727;29;20054;-72
2022/11/23 04:11:51;;;;;;;1.60;0.93;;;10.00;99.90;;;9.93;100.00;99309.97;5124881;28;20059;-73
2022/11/23 04:14:24;;;;;;;3.17;0.90;;;10.00;99.90;;;9.93;100.00;99309.09;5123279;29;20075;-73
2022/11/23 04:16:59;;;;;;;2.53;0.60;;;9.90;99.90;;;9.93;100.00;99309.97;5139204;28;20129;-72
2022/11/23 04:19:31;;;;;;;5.03;1.10;;;10.00;99.90;;;9.91;100.00;99314.28;5123942;29;20047;-73
2022/11/23 04:22:04;;;;;;;2.45;0.85;;;9.90;99.90;;;9.91;100.00;99306.47;5139159;28;20150;-72
2022/11/23 04:24:43;;;;;;;4.05;1.02;;;9.90;99.90;;;9.91;100.00;99309.06;5124641;29;20456;-73
2022/11/23 04:27:15;;;;;;;3.45;1.10;;;9.90;99.90;;;9.93;100.00;99302.16;5122823;29;20074;-73
2022/11/23 04:29:48;;;;;;;2.30;0.80;;;10.00;99.90;;;9.92;100.00;99305.63;5123620;28;20073;-72
2022/11/23 04:32:21;;;;;;;3.50;0.68;;;10.00;99.90;;;9.93;100.00;99307.34;5122817;29;20496;-73
2022/11/23 04:34:53;;;;;;;3.70;1.08;;;10.00;99.90;;;9.94;100.00;99309.09;5139231;28;20083;-73
2022/11/23 04:37:26;;;;;;;2.78;0.90;;;10.00;99.90;;;9.93;100.00;99307.34;5138967;28;20059;-73
2022/11/23 04:39:58;;;;;;;3.47;1.05;;;10.00;99.90;;;9.95;100.00;99308.25;5122262;28;20420;-73
2022/11/23 04:42:46;;;;;;;7.30;1.60;;;10.00;99.90;;;9.93;100.00;99307.34;5122829;29;20051;-73
2022/11/23 04:45:19;;;;;;;3.40;1.70;;;10.00;99.90;;;9.93;100.00;99307.34;5122924;28;20051;-73
2022/11/23 04:47:54;;;;;;;4.75;1.10;;;10.00;99.90;;;9.93;100.00;99302.16;5122375;29;20126;-73
2022/11/23 04:50:30;;;;;;;4.90;1.45;;;10.00;99.90;;;9.93;100.00;99306.47;5122684;29;20051;-72
2022/11/23 04:53:04;;;;;;;5.43;1.10;;;10.00;99.90;;;9.92;100.00;99308.22;5152186;23;20040;-85
2022/11/23 04:55:46;;;;;;;3.65;1.02;;;10.00;99.90;;;9.93;100.00;99314.28;5170222;23;20061;-74
2022/11/23 04:58:18;;;;;;;1.95;1.25;;;10.00;99.90;;;9.94;100.00;99323.84;5126550;28;20146;-73
2022/11/23 05:00:55;;;;;;;2.58;0.80;;;10.00;99.90;;;9.94;100.00;99322.13;5124658;28;20488;-73
2022/11/23 05:03:29;;;;;;;2.35;0.88;;;10.00;99.90;;;9.95;100.00;99321.25;5123801;28;20047;-74
2022/11/23 05:06:03;;;;;;;2.38;0.65;;;10.00;99.90;;;9.95;100.00;99325.59;5120718;29;20542;-72
2022/11/23 05:08:43;;;;;;;3.13;0.90;;;10.00;99.90;;;9.94;100.00;99324.72;5122565;29;20098;-73
2022/11/23 05:11:35;;;;;;;2.00;0.52;;;10.00;99.90;;;9.95;100.00;99336.00;5123484;29;20062;-74
2022/11/23 05:14:08;;;;;;;0.70;0.45;;;10.00;99.90;;;9.94;100.00;99327.31;5122760;29;20047;-73
2022/11/23 05:16:40;;;;;;;2.00;0.70;;;10.00;99.90;;;9.97;100.00;99327.34;5122649;29;20051;-73
2022/11/23 05:19:14;;;;;;;2.08;0.63;;;10.00;99.90;;;9.96;100.00;99329.94;5122443;29;20389;-74
2022/11/23 05:21:46;;;;;;;2.42;0.70;;;10.00;99.90;;;9.96;100.00;99333.41;5122881;29;20508;-73
2022/11/23 05:24:21;;;;;;;2.95;0.80;;;10.00;99.90;;;9.94;100.00;99340.34;5122838;29;20070;-73
2022/11/23 05:27:05;;;;;;;1.80;0.80;;;10.00;99.90;;;9.94;100.00;99340.34;5122354;29;20051;-74
2022/11/23 05:29:37;;;;;;;3.30;1.10;;;10.00;99.90;;;9.94;100.00;99335.13;5123435;28;20129;-73
2022/11/23 05:32:11;;;;;;;4.10;0.73;;;10.00;99.90;;;9.95;100.00;99347.28;5122816;29;20053;-73
2022/11/23 05:34:45;;;;;;;2.85;0.73;;;10.00;99.90;;;9.95;100.00;99338.59;5122156;29;20074;-73
2022/11/23 05:37:21;;;;;;;3.72;0.90;;;10.00;99.90;;;9.93;100.00;99341.19;5122327;28;20055;-73
2022/11/23 05:40:03;;;;;;;2.67;0.77;;;10.00;99.90;;;9.94;100.00;99342.06;5122246;29;20103;-73
2022/11/23 05:42:36;;;;;;;2.22;0.70;;;10.00;99.90;;;9.92;100.00;99352.47;5121569;29;20054;-74
2022/11/23 05:45:16;;;;;;;1.73;0.68;;;10.00;99.90;;;9.91;100.00;99355.94;5122404;29;20106;-73
2022/11/23 05:47:53;;;;;;;3.20;0.80;;;9.90;99.90;;;9.90;100.00;99354.16;5121909;29;20240;-73
2022/11/23 05:50:34;;;;;;;2.80;0.90;;;10.00;99.90;;;9.90;100.00;99351.53;5122759;28;20051;-73
2022/11/23 05:53:24;;;;;;;3.20;0.93;;;9.90;99.90;;;9.85;100.00;99350.63;5122186;29;20058;-73
2022/11/23 05:56:03;;;;;;;2.22;0.60;;;9.90;99.90;;;9.84;100.00;99346.25;5122434;28;20141;-74
2022/11/23 05:58:40;;;;;;;1.40;0.60;;;9.90;99.90;;;9.83;100.00;99347.09;5122062;29;20047;-73
2022/11/23 06:01:13;;;;;;;3.40;0.80;;;9.90;99.90;;;9.85;100.00;99342.81;5122593;29;20133;-74
2022/11/23 06:03:45;;;;;;;1.77;0.70;;;9.90;99.90;;;9.83;100.00;99347.09;5121906;29;20071;-73
2022/11/23 06:06:19;;;;;;;2.88;0.77;;;9.80;99.90;;;9.80;100.00;99347.06;5123536;28;20575;-73
2022/11/23 06:08:51;;;;;;;2.88;1.23;;;9.80;99.90;;;9.80;100.00;99341.88;5121967;29;20231;-73
2022/11/23 06:11:24;;;;;;;3.13;0.93;;;9.80;99.90;;;9.77;100.00;99347.88;5122026;29;20562;-73
2022/11/23 06:13:56;;;;;;;2.90;0.65;;;9.80;99.90;;;9.77;100.00;99344.41;5122101;29;20062;-74
2022/11/23 06:16:28;;;;;;;2.47;0.60;;;9.80;99.90;;;9.76;100.00;99350.47;5122185;29;20138;-74
2022/11/23 06:19:17;;;;;;;2.50;1.00;;;9.80;99.90;;;9.76;100.00;99350.47;5121504;29;20039;-74
2022/11/23 06:21:51;;;;;;;1.95;0.93;;;9.80;99.90;;;9.76;100.00;99345.28;5122239;29;20416;-72
2022/11/23 06:24:26;;;;;;;1.60;0.80;;;9.80;99.90;;;9.77;100.00;99347.88;5123230;28;20061;-73
2022/11/23 06:27:18;;;;;;;4.85;1.20;;;9.80;99.90;;;9.77;100.00;99354.81;5123211;29;20051;-72
2022/11/23 06:29:50;;;;;;;2.67;0.80;;;9.80;99.90;;;9.76;100.00;99351.34;5121764;29;20066;-73
2022/11/23 06:32:24;;;;;;;5.63;1.20;;;9.80;99.90;;;9.77;100.00;99353.09;5121978;29;20093;-73
2022/11/23 06:34:56;;;;;;;1.55;0.80;;;9.80;99.90;;;9.78;100.00;99356.59;5121858;29;20052;-73
2022/11/23 06:37:29;;;;;;;4.88;0.95;;;9.80;99.90;;;9.80;100.00;99352.28;5121623;29;20420;-73
2022/11/23 06:40:02;;;;;;;3.33;0.70;;;9.80;99.90;;;9.79;100.00;99350.53;5121375;29;20057;-73
2022/11/23 06:42:34;;;;;;;2.75;0.85;;;9.80;99.90;;;9.80;100.00;99352.28;5123487;29;20047;-73
2022/11/23 06:45:08;;;;;;;2.65;0.85;;;9.80;99.90;;;9.81;100.00;99359.22;5121862;29;20048;-74
2022/11/23 06:47:40;;;;;;;3.72;0.70;;;9.80;99.90;;;9.83;100.00;99356.66;5121596;29;20054;-74
2022/11/23 06:50:13;;;;;;;2.30;0.82;;;9.90;99.90;;;9.83;100.00;99360.13;5121383;29;20047;-73
2022/11/23 06:52:47;;;;;;;2.20;1.00;;;9.90;99.90;;;9.85;100.00;99358.44;5122435;28;20145;-73
2022/11/23 06:55:19;;;;;;;7.03;1.27;;;9.90;99.90;;;9.87;100.00;99361.94;5125146;29;20047;-74
2022/11/23 06:57:52;;;;;;;3.63;0.90;;;9.90;99.90;;;9.87;100.00;99363.66;5125055;29;20082;-73
2022/11/23 07:00:25;;;;;;;4.60;1.20;;;9.90;99.90;;;9.86;100.00;99369.72;5125433;29;20075;-73
2022/11/23 07:02:57;;;;;;;6.03;1.40;;;9.90;99.90;;;9.87;100.00;99371.47;5125453;29;20098;-72
2022/11/23 07:05:29;;;;;;;1.65;0.80;;;9.90;99.90;;;9.88;100.00;99371.47;5124538;29;20059;-55
2022/11/23 07:08:03;;;;;;;4.22;0.80;;;9.90;99.90;;;9.86;100.00;99373.19;5125470;28;20141;-55
2022/11/23 07:10:36;;;;;;;5.00;1.40;;;9.90;99.90;;;9.84;100.00;99367.06;5126020;28;20051;-56
2022/11/23 07:13:10;;;;;;;2.10;0.98;;;9.90;99.90;;;9.81;100.00;99364.44;5125110;29;20054;-56
2022/11/23 07:15:43;;;;;;;3.08;0.93;;;9.90;99.90;;;9.79;100.00;99367.03;5126058;29;20083;-54
2022/11/23 07:18:15;;;;;;;4.32;1.10;;;9.90;99.90;;;9.80;100.00;99380.91;5124372;29;20055;-54
2022/11/23 07:20:58;;;;;;;4.88;1.15;;;9.90;99.90;;;9.80;100.00;99378.31;5124450;29;20142;-55
2022/11/23 07:23:31;;;;;;;3.95;1.27;;;9.80;99.90;;;9.76;100.00;99372.16;5123809;28;20130;-54
2022/11/23 07:26:03;;;;;;;4.45;1.27;;;9.80;99.90;;;9.76;100.00;99382.56;5124436;29;20051;-54
2022/11/23 07:28:35;;;;;;;2.03;0.93;;;9.80;99.90;;;9.77;100.00;99393.84;5123547;29;20086;-54
2022/11/23 07:31:08;;;;;;;2.78;0.77;;;9.80;99.90;;;9.77;100.00;99388.66;5124222;29;20134;-56
2022/11/23 07:33:40;;;;;;;3.88;1.00;;;9.80;99.90;;;9.77;100.00;99378.25;5125030;28;20082;-54
2022/11/23 07:36:12;;;;;;;3.20;1.02;;;9.80;99.90;;;9.81;100.00;99392.19;5122231;29;20049;-55
2022/11/23 07:38:48;;;;;;;6.25;1.45;;;9.80;99.90;;;9.84;100.00;99387.88;5123117;29;20051;-55
2022/11/23 07:41:26;;;;;;;3.88;1.20;;;9.90;99.90;;;9.87;100.00;99395.75;5123531;29;20458;-56
2022/11/23 07:44:16;;;;;;;5.38;1.10;;;9.90;99.90;;;9.92;100.00;99394.09;5122478;29;20060;-55
2022/11/23 07:46:52;;;;;;;4.57;1.40;;;9.90;99.90;;;9.95;100.00;99391.53;5122917;29;20057;-54
2022/11/23 07:49:24;;;;;;;3.33;1.10;;;10.00;99.90;;;9.97;100.00;99399.38;5123779;29;20086;-56
2022/11/23 07:51:56;;;;;;;4.18;1.02;;;10.00;99.90;;;9.99;100.00;99406.34;5124457;29;20424;-55
2022/11/23 07:54:30;;;;;;;8.45;2.47;;;10.00;99.90;;;10.00;100.00;99415.91;5122226;29;20407;-54
2022/11/23 07:57:02;;;;;;;2.83;0.90;;;10.00;99.90;;;10.01;100.00;99408.97;5122214;29;20101;-55
2022/11/23 07:59:34;;;;;;;6.18;1.40;;;10.00;99.90;;;9.99;100.00;99419.38;5123635;29;20528;-55
2022/11/23 08:02:06;;;;;;;5.03;1.40;;;10.00;99.90;;;9.97;100.00;99412.38;5124139;29;20058;-55
2022/11/23 08:04:38;;;;;;;3.80;1.02;;;10.00;99.90;;;10.00;100.00;99423.72;5121811;28;20043;-55
2022/11/23 08:07:10;;;;;;;6.00;1.35;;;10.10;99.90;;;10.13;100.00;99419.56;5122392;28;20067;-53
2022/11/23 08:09:44;;;;;;;3.50;1.10;;;10.20;99.90;;;10.14;100.00;99426.53;5121449;29;20450;-54
2022/11/23 08:12:16;;;;;;;3.30;1.20;;;10.20;99.90;;;10.09;100.00;99417.78;5123584;29;20500;-56
2022/11/23 08:14:48;;;;;;;9.40;1.73;;;10.20;99.90;;;10.03;100.00;99423.75;5124610;28;20039;-55
2022/11/23 08:17:20;;;;;;;4.65;1.13;;;10.10;99.90;;;9.96;100.00;99419.31;5124806;28;20047;-55
2022/11/23 08:19:52;;;;;;;3.75;1.33;;;10.00;99.90;;;9.90;100.00;99424.41;5123800;29;20098;-52
2022/11/23 08:22:25;;;;;;;4.20;1.10;;;10.00;99.90;;;9.85;100.00;99427.84;5124772;28;20126;-53
2022/11/23 08:24:59;;;;;;;5.55;1.40;;;9.90;99.90;;;9.85;100.00;99440.84;5124581;29;20047;-55
2022/11/23 08:27:31;;;;;;;6.78;1.17;;;9.90;99.90;;;9.86;100.00;99419.16;5124245;28;20051;-56
2022/11/23 08:30:04;;;;;;;5.57;1.30;;;9.90;99.90;;;9.87;100.00;99421.78;5124393;28;20050;-55
2022/11/23 08:32:36;;;;;;;4.82;1.20;;;9.90;99.90;;;9.89;100.00;99424.41;5124182;29;20055;-54
2022/11/23 08:35:09;;;;;;;6.85;1.23;;;9.90;99.90;;;9.88;100.00;99423.53;5124369;29;20043;-55
2022/11/23 08:37:41;;;;;;;5.88;1.17;;;9.90;99.90;;;9.91;100.00;99430.50;5124142;29;20530;-54
2022/11/23 08:40:15;;;;;;;6.15;1.30;;;9.90;99.90;;;9.94;100.00;99433.16;5124439;29;20567;-55
2022/11/23 08:42:47;;;;;;;4.03;1.33;;;10.00;99.90;;;9.97;100.00;99425.41;5124309;28;20512;-56
2022/11/23 08:45:20;;;;;;;7.43;1.70;;;10.00;99.90;;;9.95;100.00;99435.78;5123840;29;20047;-54
2022/11/23 08:47:54;;;;;;;3.72;1.10;;;10.00;99.90;;;9.96;100.00;99432.31;5123682;29;20466;-54
2022/11/23 08:50:28;;;;;;;10.23;1.80;;;10.00;99.90;;;9.98;100.00;99430.66;5124037;29;20046;-54
2022/11/23 08:53:00;;;;;;;7.10;1.40;;;10.00;99.90;;;9.97;100.00;99428.00;5123791;29;20046;-57
2022/11/23 08:55:33;;;;;;;6.15;1.20;;;10.00;99.90;;;10.00;100.00;99430.66;5123664;29;20075;-54
2022/11/23 08:58:07;;;;;;;7.95;1.10;;;10.00;99.90;;;10.04;100.00;99430.75;5123427;29;20047;-54
2022/11/23 09:00:39;;;;;;;6.25;1.50;;;10.10;99.90;;;10.15;100.00;99422.19;5123765;29;20054;-56
2022/11/23 09:03:11;;;;;;;3.70;0.95;;;10.10;99.90;;;10.24;100.00;99427.59;5118112;28;20054;-55
2022/11/23 09:05:43;;;;;;;8.27;1.38;;;10.20;99.90;;;10.30;100.00;99430.25;5125618;28;20062;-55
2022/11/23 09:08:15;;;;;;;9.98;1.92;;;10.30;99.90;;;10.29;100.00;99431.13;5127852;28;20390;-54
2022/11/23 09:10:49;;;;;;;6.82;1.20;;;10.30;99.90;;;10.39;100.00;99438.22;5119443;28;20052;-53
2022/11/23 09:13:21;;;;;;;6.25;1.50;;;10.40;99.90;;;10.46;100.00;99434.84;5119357;28;20500;-54
2022/11/23 09:15:58;;;;;;;6.93;1.25;;;10.40;99.90;;;10.47;100.00;99436.59;5112498;28;20053;-55
2022/11/23 09:18:32;;;;;;;6.32;1.38;;;10.40;99.90;;;10.46;100.00;99442.66;5122998;28;20047;-53
2022/11/23 09:21:06;;;;;;;5.13;1.30;;;10.50;99.90;;;10.50;100.00;99446.19;5123523;28;20059;-55
2022/11/23 09:23:38;;;;;;;7.07;1.63;;;10.50;99.90;;;10.54;100.00;99445.34;5117597;28;20054;-56
2022/11/23 09:26:11;;;;;;;5.90;1.73;;;10.50;99.90;;;10.63;100.00;99452.41;5116259;28;20409;-54
2022/11/23 09:28:43;;;;;;;5.65;1.33;;;10.50;99.90;;;10.73;100.00;99444.75;5120772;28;20043;-55
2022/11/23 09:31:15;;;;;;;5.70;0.90;;;10.60;99.90;;;10.80;100.00;99446.56;5117929;28;20047;-56
2022/11/23 09:33:47;;;;;;;4.63;1.35;;;10.70;99.90;;;10.85;100.00;99451.84;5123865;28;20583;-54
2022/11/23 09:36:21;;;;;;;4.03;1.40;;;10.80;99.90;;;10.84;100.00;99443.16;5119455;28;20063;-56
2022/11/23 09:38:54;;;;;;;4.80;1.50;;;10.80;99.90;;;10.85;100.00;99441.41;5120011;28;20082;-55
2022/11/23 09:42:22;;;;;;;5.45;1.13;;;10.80;99.90;;;10.83;100.00;99445.75;5123594;28;20081;-55
2022/11/23 09:45:19;;;;;;;4.70;1.20;;;10.80;99.90;;;10.78;99.86;99447.41;5119993;28;20049;-58
2022/11/23 09:48:22;;;;;;;3.72;1.10;;;10.80;99.90;;;10.78;99.93;99452.63;5122567;28;20047;-55
2022/11/23 09:51:00;;;;;;;3.53;1.00;;;10.80;99.90;;;10.83;100.00;99450.97;5117932;28;20047;-56
2022/11/23 09:53:40;;;;;;;4.30;1.27;;;10.70;99.90;;;10.83;100.00;99446.63;5122408;28;20051;-54
2022/11/23 09:56:19;;;;;;;7.15;1.52;;;10.80;99.90;;;10.82;100.00;99447.47;5121948;28;20051;-56
2022/11/23 09:58:56;;;;;;;4.57;1.30;;;10.80;99.90;;;10.80;98.86;99450.91;5120991;28;20412;-56
2022/11/23 10:01:29;;;;;;;4.10;1.45;;;10.80;99.90;;;10.79;99.20;99449.16;5119356;28;20055;-54
2022/11/23 10:04:01;;;;;;;5.78;1.15;;;10.70;99.90;;;10.79;99.10;99449.16;5115142;28;20043;-56
2022/11/23 10:06:40;;;;;;;7.35;1.13;;;10.70;99.90;;;10.83;98.94;99450.97;5118542;28;20051;-55
2022/11/23 10:09:28;;;;;;;5.85;1.27;;;10.80;99.90;;;10.82;98.52;99443.97;5122363;28;20058;-54
2022/11/23 10:12:37;;;;;;;3.33;1.00;;;10.80;99.90;;;10.84;98.52;99443.16;5122662;28;20050;-53
2022/11/23 10:15:19;;;;;;;6.00;1.02;;;10.80;99.90;;;10.88;98.06;99441.44;5122951;28;20409;-53
2022/11/23 10:18:18;;;;;;;6.22;1.35;;;10.80;99.90;;;10.95;97.80;99445.88;5122439;28;20051;-55
2022/11/23 10:21:00;;;;;;;5.80;1.23;;;10.90;99.90;;;10.98;97.38;99443.31;5122889;28;20120;-55
2022/11/23 10:23:47;;;;;;;3.35;0.80;;;10.90;99.90;;;10.98;96.57;99435.50;5122615;28;20047;-55
2022/11/23 10:26:21;;;;;;;6.20;1.50;;;10.90;99.90;;;10.96;96.37;99429.41;5122664;28;20039;-54
2022/11/23 10:28:55;;;;;;;3.10;0.98;;;10.90;99.90;;;10.96;96.69;99434.59;5123455;28;20772;-55
2022/11/23 10:31:30;;;;;;;4.32;1.35;;;10.90;99.90;;;10.98;96.49;99435.50;5115027;28;20047;-55
2022/11/23 10:34:10;;;;;;;5.20;1.10;;;10.90;99.90;;;11.00;96.47;99438.97;5109528;28;20059;-55
2022/11/23 10:36:42;;;;;;;5.47;1.02;;;10.90;99.90;;;11.03;96.13;99433.81;5112913;29;20040;-56
2022/11/23 10:39:24;;;;;;;3.08;1.13;;;10.90;99.90;;;11.10;96.40;99435.63;5125999;28;20051;-54
2022/11/23 10:42:00;;;;;;;;;;;11.00;99.90;;;11.19;95.64;99434.84;5126665;28;20456;-54
2022/11/23 10:44:36;;;;;;;3.17;0.88;;;11.10;99.90;;;11.42;94.49;99414.22;5126089;29;19934;-53
2022/11/23 10:47:10;;;;;;;4.60;1.00;;;11.30;99.90;;;11.66;92.58;99410.94;5125864;29;20047;-54
2022/11/23 10:49:58;;;;;;;3.10;0.75;;;11.40;99.90;;;11.80;90.56;99393.69;5119507;28;20047;-54
2022/11/23 10:52:32;;;;;;;3.72;1.05;;;11.60;99.90;;;11.87;89.74;99395.50;5123870;28;20196;-53